Isabella, Minnesota
Current Conditions -  °F | °C
As of 8:54 AM on Thursday 30 Oct 2014 (Local Time) from KBFW Reporting Station
Scattered Clouds Scattered Clouds  
Wind Chill: 37°   Ceiling: Unl
Heat Index: 37°   Visibility: 10mi
Dew Point: 34°   Wind: 3mph
Humidity: 87%   Direction: 280°W
Pressure: 30.03"   Gusts: NA
Location:  47.62°N, 91.36°W
Report Text: KBFW 301354Z AUTO 28003KT 10SM SCT095 03/01 A3003 RMK AO2
Loading
Personal Weather Stations






























Interactive Weather Map
Tropical Storm Tracking
New forecast layout! Learn more

10-Day Weather Forecast

Advertisements
Track Severe Weather on mobile